Time;durP1;ratioP1;P1;durP2;ratioP2;P2;SDS_P1;SDS_P2;PMS_P1;PMS_P2;Temp;Humidity;BMP_temperature;BMP_pressure;BME280_temperature;BME280_humidity;BME280_pressure;Samples;Min_cycle;Max_cycle;Signal;HPM_P1;HPM_P2
2023/12/25 00:02:25;;;;;;;12.40;2.97;;;12.30;99.90;;;;;;5014770;28;20036;-74
2023/12/25 00:04:51;;;;;;;12.00;2.40;;;12.30;99.90;;;;;;5013815;28;20045;-79
2023/12/25 00:07:17;;;;;;;14.48;2.95;;;12.30;99.90;;;;;;5013041;28;20041;-80
2023/12/25 00:09:44;;;;;;;11.02;2.33;;;12.30;99.90;;;;;;5000524;28;20038;-76
2023/12/25 00:12:10;;;;;;;13.43;1.88;;;12.30;99.90;;;;;;5014004;28;20041;-79
2023/12/25 00:14:37;;;;;;;11.35;2.70;;;12.30;99.90;;;;;;5013456;28;20485;-78
2023/12/25 00:17:03;;;;;;;8.38;1.80;;;12.30;99.90;;;;;;4995722;28;20044;-80
2023/12/25 00:19:30;;;;;;;14.13;2.78;;;12.30;99.90;;;;;;4997025;28;20406;-74
2023/12/25 00:21:58;;;;;;;12.88;2.80;;;12.20;99.90;;;;;;4996020;28;20038;-78
2023/12/25 00:24:24;;;;;;;8.55;2.28;;;12.20;99.90;;;;;;4997088;28;20034;-79
2023/12/25 00:26:50;;;;;;;11.27;2.30;;;12.20;99.90;;;;;;5015417;28;20030;-78
2023/12/25 00:29:17;;;;;;;6.95;1.80;;;12.20;99.90;;;;;;5016083;28;20037;-80
2023/12/25 00:31:43;;;;;;;10.20;2.15;;;12.20;99.90;;;;;;5016514;28;20461;-79
2023/12/25 00:34:10;;;;;;;14.73;3.03;;;12.10;99.90;;;;;;5014748;28;20508;-79
2023/12/25 00:36:36;;;;;;;13.43;2.20;;;12.20;99.90;;;;;;5014061;28;20032;-78
2023/12/25 00:39:02;;;;;;;16.95;2.25;;;12.20;99.90;;;;;;5012993;28;20029;-79
2023/12/25 00:41:31;;;;;;;11.95;2.72;;;12.20;99.90;;;;;;5014916;28;20499;-79
2023/12/25 00:44:00;;;;;;;13.82;2.63;;;12.20;99.90;;;;;;4997445;28;20432;-78
2023/12/25 00:46:28;;;;;;;11.63;2.08;;;12.10;99.90;;;;;;4995300;28;20092;-75
2023/12/25 00:48:54;;;;;;;12.60;2.42;;;12.10;99.90;;;;;;5013108;28;20049;-80
2023/12/25 00:51:20;;;;;;;15.68;2.38;;;12.10;99.90;;;;;;4983728;28;20050;-81
2023/12/25 00:53:47;;;;;;;16.58;2.50;;;12.10;99.90;;;;;;4997102;28;20045;-79
2023/12/25 00:56:13;;;;;;;9.52;2.78;;;12.00;99.90;;;;;;5013927;28;20042;-82
2023/12/25 00:58:39;;;;;;;13.48;3.05;;;12.00;99.90;;;;;;4983117;28;20159;-77
2023/12/25 01:01:06;;;;;;;13.20;2.85;;;12.00;99.90;;;;;;5017683;28;20492;-84
2023/12/25 01:03:32;;;;;;;7.30;1.02;;;12.00;99.90;;;;;;5013306;28;20499;-89
2023/12/25 01:05:58;;;;;;;5.13;1.00;;;11.90;99.90;;;;;;4999329;28;20025;-87
2023/12/25 01:08:25;;;;;;;6.30;0.73;;;11.80;99.90;;;;;;5031521;28;20037;-81
2023/12/25 01:10:51;;;;;;;4.90;0.60;;;11.70;99.90;;;;;;5001578;28;20041;-79
2023/12/25 01:13:18;;;;;;;5.50;0.70;;;11.50;99.90;;;;;;5014177;28;20045;-89
2023/12/25 01:15:44;;;;;;;4.85;0.60;;;11.40;99.90;;;;;;5016653;28;20034;-81
2023/12/25 01:18:11;;;;;;;4.97;0.82;;;11.40;99.90;;;;;;5015455;28;20504;-84
2023/12/25 01:20:37;;;;;;;5.97;1.20;;;11.40;99.90;;;;;;5001722;28;20468;-83
2023/12/25 01:23:03;;;;;;;7.15;1.25;;;11.40;99.90;;;;;;5015665;28;20030;-83
2023/12/25 01:25:30;;;;;;;11.88;1.48;;;11.50;99.90;;;;;;5000222;28;22702;-84
2023/12/25 01:27:56;;;;;;;9.70;1.55;;;11.50;99.90;;;;;;5015175;28;20029;-88
2023/12/25 01:30:22;;;;;;;10.73;1.98;;;11.50;99.90;;;;;;5014193;28;20048;-86
2023/12/25 01:32:49;;;;;;;10.63;2.35;;;11.60;99.90;;;;;;5015555;28;20033;-81
2023/12/25 01:35:16;;;;;;;12.30;1.90;;;11.60;99.90;;;;;;5015710;28;20042;-81
2023/12/25 01:37:42;;;;;;;9.35;1.60;;;11.50;99.90;;;;;;5014120;28;20042;-81
2023/12/25 01:40:09;;;;;;;10.40;2.08;;;11.50;99.90;;;;;;4987783;28;20040;-82
2023/12/25 01:42:35;;;;;;;14.73;2.95;;;11.50;99.90;;;;;;5017759;28;20429;-82
2023/12/25 01:45:03;;;;;;;10.20;2.47;;;11.50;99.90;;;;;;5019526;28;20244;-78
2023/12/25 01:47:30;;;;;;;18.20;2.30;;;11.50;99.90;;;;;;4999745;28;20033;-79
2023/12/25 01:50:00;;;;;;;17.00;2.90;;;11.50;99.90;;;;;;5002481;28;20107;-81
2023/12/25 01:52:27;;;;;;;13.13;3.17;;;11.50;99.90;;;;;;5017595;28;20033;-82
2023/12/25 01:54:56;;;;;;;19.98;3.22;;;11.50;99.90;;;;;;5005838;28;20038;-81
2023/12/25 01:57:23;;;;;;;14.32;3.80;;;11.50;99.90;;;;;;5018443;28;20037;-80
2023/12/25 01:59:49;;;;;;;14.25;2.17;;;11.50;99.90;;;;;;5002532;28;20104;-81
2023/12/25 02:02:18;;;;;;;11.95;2.13;;;11.50;99.90;;;;;;5001596;28;20029;-75
2023/12/25 02:04:46;;;;;;;16.63;2.40;;;11.50;99.90;;;;;;5030347;28;20049;-79
2023/12/25 02:07:14;;;;;;;17.48;1.92;;;11.50;99.90;;;;;;5019417;28;20388;-75
2023/12/25 02:09:40;;;;;;;11.20;1.52;;;11.40;99.90;;;;;;5015304;28;20029;-79
2023/12/25 02:12:06;;;;;;;8.70;0.90;;;11.40;99.90;;;;;;4999444;28;20034;-80
2023/12/25 02:14:33;;;;;;;6.32;0.77;;;11.30;99.90;;;;;;5018846;28;20407;-81
2023/12/25 02:16:59;;;;;;;6.82;0.85;;;11.20;99.90;;;;;;5002162;28;20047;-79
2023/12/25 02:19:38;;;;;;;6.53;1.00;;;11.10;99.90;;;;;;5020033;28;20030;-83
2023/12/25 02:22:08;;;;;;;7.55;0.80;;;11.00;99.90;;;;;;5001169;28;20049;-81
2023/12/25 02:24:54;;;;;;;4.97;1.05;;;10.90;99.90;;;;;;5001104;28;20033;-81
2023/12/25 02:27:20;;;;;;;3.65;0.57;;;10.80;99.90;;;;;;5014113;28;20030;-83
2023/12/25 02:29:47;;;;;;;7.35;0.50;;;10.70;99.90;;;;;;5000229;28;20033;-84
2023/12/25 02:32:13;;;;;;;3.45;0.40;;;10.60;99.90;;;;;;5000339;28;20594;-79
2023/12/25 02:34:39;;;;;;;3.35;0.60;;;10.50;99.90;;;;;;5032478;28;20064;-82
2023/12/25 02:37:06;;;;;;;2.85;0.70;;;10.50;99.90;;;;;;5015832;28;20040;-83
2023/12/25 02:39:32;;;;;;;5.57;0.93;;;10.50;99.90;;;;;;5002520;28;20030;-80
2023/12/25 02:41:58;;;;;;;3.03;0.60;;;10.50;99.90;;;;;;5002492;28;20045;-80
2023/12/25 02:44:25;;;;;;;5.88;0.70;;;10.50;99.90;;;;;;5002197;28;20500;-81
2023/12/25 02:46:51;;;;;;;14.30;1.27;;;10.50;99.90;;;;;;5001589;28;20360;-81
2023/12/25 02:49:17;;;;;;;10.48;1.98;;;10.60;99.90;;;;;;5002567;28;20037;-81
2023/12/25 02:51:44;;;;;;;17.50;2.67;;;10.60;99.90;;;;;;5015201;28;20472;-80
2023/12/25 02:54:10;;;;;;;13.80;2.25;;;10.70;99.90;;;;;;5015965;28;20026;-79
2023/12/25 02:56:36;;;;;;;13.13;2.60;;;10.80;99.90;;;;;;5000346;28;20049;-78
2023/12/25 02:59:02;;;;;;;15.80;2.90;;;10.90;99.90;;;;;;5022758;28;20732;-79
2023/12/25 03:01:29;;;;;;;11.98;3.28;;;10.90;99.90;;;;;;4999997;28;20484;-78
2023/12/25 03:03:55;;;;;;;18.15;3.70;;;11.00;99.90;;;;;;5017385;28;20037;-79
2023/12/25 03:06:21;;;;;;;24.92;4.72;;;11.10;99.90;;;;;;5016074;28;20033;-78
2023/12/25 03:08:48;;;;;;;24.13;3.70;;;11.20;99.90;;;;;;5003500;28;20024;-76
2023/12/25 03:11:14;;;;;;;24.85;4.53;;;11.20;99.90;;;;;;5014993;28;20396;-78
2023/12/25 03:13:40;;;;;;;16.80;3.30;;;11.20;99.90;;;;;;4986395;28;20511;-77
2023/12/25 03:16:07;;;;;;;20.30;4.53;;;11.30;99.90;;;;;;5003716;28;20039;-79
2023/12/25 03:18:34;;;;;;;29.13;5.57;;;11.30;99.90;;;;;;5018014;28;20037;-79
2023/12/25 03:21:00;;;;;;;18.67;3.60;;;11.40;99.90;;;;;;5033032;28;20087;-77
2023/12/25 03:23:27;;;;;;;22.83;4.75;;;11.40;99.90;;;;;;5000490;28;20091;-79
2023/12/25 03:25:55;;;;;;;22.88;3.88;;;11.40;99.90;;;;;;5027943;28;20033;-79
2023/12/25 03:28:23;;;;;;;18.85;4.25;;;11.40;99.90;;;;;;5013902;28;20037;-78
2023/12/25 03:30:50;;;;;;;17.45;3.65;;;11.50;99.90;;;;;;5015145;28;20053;-78
2023/12/25 03:33:16;;;;;;;18.77;3.70;;;11.50;99.90;;;;;;5016913;28;20038;-78
2023/12/25 03:35:44;;;;;;;28.10;4.43;;;11.50;99.90;;;;;;5015936;28;21084;-78
2023/12/25 03:38:11;;;;;;;20.98;4.35;;;11.50;99.90;;;;;;4997027;28;20067;-75
2023/12/25 03:40:37;;;;;;;21.83;3.50;;;11.50;99.90;;;;;;5015009;28;20025;-74
2023/12/25 03:43:03;;;;;;;22.30;3.20;;;11.50;99.90;;;;;;5015239;28;20045;-76
2023/12/25 03:45:30;;;;;;;22.73;3.90;;;11.50;99.90;;;;;;5015553;28;20052;-76
2023/12/25 03:47:56;;;;;;;26.23;3.70;;;11.50;99.90;;;;;;5001226;28;20038;-76
2023/12/25 03:50:23;;;;;;;15.98;3.80;;;11.50;99.90;;;;;;5000502;28;20038;-77
2023/12/25 03:52:49;;;;;;;18.02;3.58;;;11.50;99.90;;;;;;5015038;28;20033;-78
2023/12/25 03:55:16;;;;;;;16.60;3.42;;;11.50;99.90;;;;;;5015139;28;20029;-75
2023/12/25 03:57:43;;;;;;;18.60;3.40;;;11.50;99.90;;;;;;5016637;28;20978;-78
2023/12/25 04:00:09;;;;;;;20.25;4.40;;;11.50;99.90;;;;;;5015537;28;20440;-79
2023/12/25 04:02:42;;;;;;;18.80;3.60;;;11.50;99.90;;;;;;5000448;28;20041;-78
2023/12/25 04:05:09;;;;;;;17.38;3.42;;;11.50;99.90;;;;;;5015150;28;20044;-78
2023/12/25 04:07:36;;;;;;;17.17;3.95;;;11.50;99.90;;;;;;5030227;28;20037;-77
2023/12/25 04:10:04;;;;;;;18.67;2.78;;;11.50;99.90;;;;;;5016497;28;20108;-79
2023/12/25 04:12:31;;;;;;;25.20;4.07;;;11.50;99.90;;;;;;5014512;28;20026;-79
2023/12/25 04:14:57;;;;;;;19.23;3.63;;;11.50;99.90;;;;;;4999794;28;20377;-78
2023/12/25 04:17:26;;;;;;;20.90;3.17;;;11.50;99.90;;;;;;5001845;28;20433;-78
2023/12/25 04:19:52;;;;;;;20.63;2.90;;;11.50;99.90;;;;;;5015543;28;20041;-74
2023/12/25 04:22:18;;;;;;;21.58;3.13;;;11.50;99.90;;;;;;5015648;28;20037;-77
2023/12/25 04:24:45;;;;;;;17.65;3.35;;;11.50;99.90;;;;;;5000035;28;20037;-75
2023/12/25 04:27:11;;;;;;;20.95;3.22;;;11.50;99.90;;;;;;5014786;28;20260;-77
2023/12/25 04:29:37;;;;;;;16.90;3.15;;;11.50;99.90;;;;;;4983190;28;20045;-80
2023/12/25 04:32:04;;;;;;;15.45;2.13;;;11.50;99.90;;;;;;5014769;28;20037;-75
2023/12/25 04:34:30;;;;;;;15.05;2.70;;;11.50;99.90;;;;;;4982288;28;20045;-77
2023/12/25 04:36:57;;;;;;;18.65;2.65;;;11.50;99.90;;;;;;4997202;28;20505;-78
2023/12/25 04:39:23;;;;;;;22.25;3.63;;;11.50;99.90;;;;;;5000998;28;20056;-77
2023/12/25 04:41:49;;;;;;;13.93;1.92;;;11.50;99.90;;;;;;5014454;28;20041;-77
2023/12/25 04:44:16;;;;;;;14.55;2.50;;;11.50;99.90;;;;;;5017224;28;20037;-77
2023/12/25 04:46:43;;;;;;;15.85;3.05;;;11.50;99.90;;;;;;5014954;28;20037;-79
2023/12/25 04:49:09;;;;;;;13.45;3.10;;;11.50;99.90;;;;;;4998537;28;20034;-79
2023/12/25 04:51:35;;;;;;;14.43;2.38;;;11.50;99.90;;;;;;5014477;28;20030;-74
2023/12/25 04:54:02;;;;;;;19.30;3.47;;;11.40;99.90;;;;;;5034922;28;20476;-75
2023/12/25 04:56:29;;;;;;;24.30;3.40;;;11.40;99.90;;;;;;4998061;28;20528;-77
2023/12/25 04:58:55;;;;;;;17.08;3.45;;;11.50;99.90;;;;;;5030139;28;20042;-77
2023/12/25 05:01:21;;;;;;;15.57;3.47;;;11.50;99.90;;;;;;5013354;28;20048;-77
2023/12/25 05:03:48;;;;;;;11.70;3.10;;;11.50;99.90;;;;;;5014577;28;20045;-78
2023/12/25 05:06:15;;;;;;;22.70;4.07;;;11.50;99.90;;;;;;4996269;28;20034;-78
2023/12/25 05:08:42;;;;;;;13.65;2.78;;;11.50;99.90;;;;;;5000216;28;20037;-77
2023/12/25 05:11:08;;;;;;;20.60;3.67;;;11.60;99.90;;;;;;4997559;28;20034;-77
2023/12/25 05:13:35;;;;;;;9.30;2.42;;;11.60;99.90;;;;;;4999504;28;20508;-73
2023/12/25 05:16:02;;;;;;;20.02;2.63;;;11.60;99.90;;;;;;5019917;28;20041;-77
2023/12/25 05:18:29;;;;;;;17.73;2.72;;;11.60;99.90;;;;;;5002050;28;20041;-77
2023/12/25 05:20:55;;;;;;;12.35;2.05;;;11.60;99.90;;;;;;5001910;28;20045;-78
2023/12/25 05:23:21;;;;;;;14.73;2.63;;;11.60;99.90;;;;;;5002137;28;20041;-74
2023/12/25 05:25:48;;;;;;;12.35;2.42;;;11.60;99.90;;;;;;5016607;28;20033;-77
2023/12/25 05:28:14;;;;;;;11.77;2.45;;;11.60;99.90;;;;;;5021424;28;20488;-78
2023/12/25 05:30:40;;;;;;;16.05;3.33;;;11.60;99.90;;;;;;5003389;28;20037;-77
2023/12/25 05:33:06;;;;;;;18.48;2.10;;;11.60;99.90;;;;;;5016628;28;20032;-78
2023/12/25 05:35:33;;;;;;;7.50;1.35;;;11.60;99.90;;;;;;4999401;28;20041;-79
2023/12/25 05:37:59;;;;;;;11.57;1.63;;;11.60;99.90;;;;;;5001776;28;20045;-77
2023/12/25 05:40:25;;;;;;;8.40;1.65;;;11.50;99.90;;;;;;5020345;28;20029;-75
2023/12/25 05:42:52;;;;;;;9.10;1.73;;;11.50;99.90;;;;;;5019959;28;20037;-74
2023/12/25 05:45:19;;;;;;;6.20;1.60;;;11.40;99.90;;;;;;4999380;28;20037;-77
2023/12/25 05:47:45;;;;;;;13.52;1.80;;;11.40;99.90;;;;;;5032904;28;20037;-74
2023/12/25 05:50:12;;;;;;;8.93;1.35;;;11.40;99.90;;;;;;5019458;28;20029;-77
2023/12/25 05:52:38;;;;;;;8.18;1.55;;;11.30;99.90;;;;;;5000155;28;20029;-77
2023/12/25 05:55:05;;;;;;;9.35;1.55;;;11.30;99.90;;;;;;5018369;28;20021;-76
2023/12/25 05:57:31;;;;;;;6.75;1.33;;;11.30;99.90;;;;;;5015704;28;20676;-78
2023/12/25 05:59:58;;;;;;;7.68;2.35;;;11.30;99.90;;;;;;4999633;28;20037;-75
2023/12/25 06:02:24;;;;;;;10.00;2.75;;;11.30;99.90;;;;;;5019708;28;21163;-77
2023/12/25 06:04:50;;;;;;;11.48;3.40;;;11.30;99.90;;;;;;5001024;28;20044;-79
2023/12/25 06:07:17;;;;;;;9.68;2.80;;;11.30;99.90;;;;;;5017517;28;20033;-78
2023/12/25 06:09:44;;;;;;;7.82;3.40;;;11.30;99.90;;;;;;4984632;28;20049;-76
2023/12/25 06:12:11;;;;;;;13.60;4.07;;;11.40;99.90;;;;;;5013085;28;20475;-81
2023/12/25 06:14:38;;;;;;;15.38;4.38;;;11.40;99.90;;;;;;5015382;28;20598;-79
2023/12/25 06:17:04;;;;;;;15.95;4.72;;;11.40;99.90;;;;;;5017679;28;20511;-77
2023/12/25 06:19:31;;;;;;;9.20;4.20;;;11.40;99.90;;;;;;5017415;28;20412;-75
2023/12/25 06:21:57;;;;;;;10.65;5.43;;;11.40;99.90;;;;;;5019601;28;21831;-78
2023/12/25 06:24:23;;;;;;;14.75;5.57;;;11.50;99.90;;;;;;5013043;28;20037;-77
2023/12/25 06:26:50;;;;;;;15.63;5.10;;;11.50;99.90;;;;;;5017440;28;20583;-77
2023/12/25 06:29:16;;;;;;;13.45;4.60;;;11.50;99.90;;;;;;4998228;28;20037;-79
2023/12/25 06:31:49;;;;;;;12.50;5.47;;;11.50;99.90;;;;;;5010271;28;20033;-76
2023/12/25 06:34:15;;;;;;;;;;;11.50;99.90;;;;;;5014907;28;21610;-77
2023/12/25 06:36:41;;;;;;;11.10;4.55;;;11.50;99.90;;;;;;5014641;28;19921;-78
2023/12/25 06:39:08;;;;;;;16.98;5.75;;;11.40;99.90;;;;;;5016080;28;20041;-80
2023/12/25 06:41:35;;;;;;;10.23;4.70;;;11.50;99.90;;;;;;4998447;28;20038;-79
2023/12/25 06:44:01;;;;;;;11.90;4.78;;;11.40;99.90;;;;;;5014942;28;20901;-76
2023/12/25 06:46:28;;;;;;;8.50;4.53;;;11.40;99.90;;;;;;4996912;28;20037;-78
2023/12/25 06:48:54;;;;;;;13.55;5.75;;;11.40;99.90;;;;;;5015114;28;20045;-78
2023/12/25 06:51:21;;;;;;;9.18;3.75;;;11.40;99.90;;;;;;5016642;28;20040;-77
2023/12/25 06:53:47;;;;;;;10.18;3.45;;;11.40;99.90;;;;;;5015643;28;20060;-78
2023/12/25 06:56:13;;;;;;;5.53;2.30;;;11.40;99.90;;;;;;5013436;28;20515;-77
2023/12/25 06:58:40;;;;;;;6.82;2.53;;;11.40;99.90;;;;;;5016680;28;20033;-78
2023/12/25 07:01:06;;;;;;;9.45;1.77;;;11.40;99.90;;;;;;4998628;28;20453;-78
2023/12/25 07:03:33;;;;;;;4.97;1.15;;;11.30;99.90;;;;;;4999159;28;20424;-78
2023/12/25 07:06:00;;;;;;;5.68;1.42;;;11.30;99.90;;;;;;5015863;28;20037;-77
2023/12/25 07:08:27;;;;;;;5.22;1.20;;;11.30;99.90;;;;;;5013475;28;20056;-78
2023/12/25 07:10:54;;;;;;;5.28;1.25;;;11.30;99.90;;;;;;4996880;28;20366;-78
2023/12/25 07:13:21;;;;;;;7.70;1.42;;;11.30;99.90;;;;;;5031341;28;20385;-79
2023/12/25 07:15:47;;;;;;;6.97;1.05;;;11.30;99.90;;;;;;5013194;28;20040;-75
2023/12/25 07:18:14;;;;;;;5.07;0.80;;;11.20;99.90;;;;;;5014883;28;20064;-78
2023/12/25 07:20:40;;;;;;;5.15;0.60;;;11.20;99.90;;;;;;5014759;28;20440;-79
2023/12/25 07:23:07;;;;;;;4.03;0.80;;;11.20;99.90;;;;;;5016831;28;20420;-76
2023/12/25 07:25:33;;;;;;;3.33;0.60;;;11.20;99.90;;;;;;4998332;28;22775;-77
2023/12/25 07:27:59;;;;;;;8.85;1.05;;;11.20;99.90;;;;;;4999074;28;20034;-77
2023/12/25 07:30:25;;;;;;;7.55;1.35;;;11.10;99.90;;;;;;4998337;28;20044;-79
2023/12/25 07:32:52;;;;;;;4.88;0.73;;;11.10;99.90;;;;;;5029725;28;20036;-78
2023/12/25 07:35:18;;;;;;;3.88;1.30;;;11.00;99.90;;;;;;5016310;28;20029;-74
2023/12/25 07:37:45;;;;;;;3.13;0.70;;;11.00;99.90;;;;;;5015150;28;20045;-78
2023/12/25 07:40:11;;;;;;;3.78;0.60;;;11.00;99.90;;;;;;4998560;28;20487;-79
2023/12/25 07:42:37;;;;;;;5.72;0.82;;;10.90;99.90;;;;;;5017887;28;20033;-78
2023/12/25 07:45:04;;;;;;;5.88;0.73;;;10.90;99.90;;;;;;4995890;28;20037;-76
2023/12/25 07:47:31;;;;;;;2.47;0.70;;;10.90;99.90;;;;;;5016229;28;20056;-77
2023/12/25 07:49:57;;;;;;;3.38;0.65;;;10.90;99.90;;;;;;5026665;28;20041;-80
2023/12/25 07:52:23;;;;;;;4.63;0.80;;;10.90;99.90;;;;;;5012502;28;20462;-80
2023/12/25 07:54:50;;;;;;;6.10;0.95;;;10.90;99.90;;;;;;5015247;28;20049;-78
2023/12/25 07:57:16;;;;;;;2.85;0.55;;;10.80;99.90;;;;;;5016459;28;20039;-79
2023/12/25 07:59:43;;;;;;;2.80;0.88;;;10.80;99.90;;;;;;5017306;28;20034;-79
2023/12/25 08:02:09;;;;;;;3.03;0.60;;;10.80;99.90;;;;;;5002111;28;20045;-79
2023/12/25 08:04:35;;;;;;;2.55;0.70;;;10.80;99.90;;;;;;5000847;28;20413;-79
2023/12/25 08:07:02;;;;;;;3.28;0.52;;;10.80;99.90;;;;;;5015487;28;20034;-80
2023/12/25 08:09:28;;;;;;;3.85;0.68;;;10.80;99.90;;;;;;5000036;28;20060;-77
2023/12/25 08:11:54;;;;;;;1.15;0.68;;;10.80;99.90;;;;;;5013098;28;20041;-79
2023/12/25 08:14:20;;;;;;;2.58;0.60;;;10.80;99.90;;;;;;5012386;28;20435;-78
2023/12/25 08:16:47;;;;;;;4.95;0.90;;;10.80;99.90;;;;;;5012784;28;20038;-78
2023/12/25 08:19:13;;;;;;;3.65;0.80;;;10.80;99.90;;;;;;5013994;28;20050;-76
2023/12/25 08:21:40;;;;;;;5.25;0.80;;;10.80;99.90;;;;;;5001416;28;20056;-77
2023/12/25 08:24:07;;;;;;;7.57;0.77;;;10.80;99.90;;;;;;5030579;28;20064;-75
2023/12/25 08:26:33;;;;;;;4.13;0.93;;;10.80;99.90;;;;;;4999670;28;20040;-79
2023/12/25 08:28:59;;;;;;;4.82;0.85;;;10.80;99.90;;;;;;5013196;28;20029;-76
2023/12/25 08:31:26;;;;;;;7.97;0.90;;;10.80;99.90;;;;;;4997905;28;20109;-80
2023/12/25 08:33:52;;;;;;;6.97;0.80;;;10.80;99.90;;;;;;5014415;28;20021;-73
2023/12/25 08:36:18;;;;;;;3.10;1.13;;;10.80;99.90;;;;;;4996519;28;20048;-78
2023/12/25 08:38:44;;;;;;;6.07;1.08;;;10.80;99.90;;;;;;5011785;28;20045;-74
2023/12/25 08:41:11;;;;;;;2.28;0.70;;;10.80;99.90;;;;;;4998952;28;20060;-77
2023/12/25 08:43:37;;;;;;;5.43;0.70;;;10.90;99.90;;;;;;5014861;28;20034;-78
2023/12/25 08:46:03;;;;;;;8.00;0.80;;;10.90;99.90;;;;;;5012691;28;20038;-78
2023/12/25 08:48:30;;;;;;;4.63;0.65;;;10.90;99.90;;;;;;5012949;28;20032;-79
2023/12/25 08:50:56;;;;;;;2.92;1.00;;;10.90;99.90;;;;;;5028036;28;20049;-79
2023/12/25 08:53:23;;;;;;;4.38;1.15;;;10.90;99.90;;;;;;5012463;28;20029;-79
2023/12/25 08:55:49;;;;;;;5.88;0.90;;;10.90;99.90;;;;;;4997153;28;20040;-78
2023/12/25 08:58:15;;;;;;;5.57;0.90;;;10.90;99.90;;;;;;5011602;28;20047;-79
2023/12/25 09:00:42;;;;;;;3.25;0.93;;;10.90;99.90;;;;;;5013672;28;20033;-76
2023/12/25 09:03:08;;;;;;;5.85;0.80;;;11.00;99.90;;;;;;4994518;28;20044;-78
2023/12/25 09:05:34;;;;;;;3.72;0.70;;;11.00;99.90;;;;;;5012189;28;20058;-78
2023/12/25 09:08:01;;;;;;;3.70;0.70;;;11.00;99.90;;;;;;4996890;28;20041;-77
2023/12/25 09:10:27;;;;;;;5.53;1.05;;;11.00;99.90;;;;;;4999437;28;20034;-78
2023/12/25 09:12:53;;;;;;;4.18;0.80;;;11.00;99.90;;;;;;5014632;28;20034;-76
2023/12/25 09:15:19;;;;;;;3.30;0.70;;;11.00;99.90;;;;;;5012824;28;20029;-77
2023/12/25 09:17:46;;;;;;;1.95;0.60;;;11.00;99.90;;;;;;5017590;28;20407;-78
2023/12/25 09:20:13;;;;;;;4.70;0.80;;;11.00;99.90;;;;;;5015484;28;20033;-77
2023/12/25 09:22:40;;;;;;;10.90;1.10;;;11.00;99.90;;;;;;5013388;28;20036;-75
2023/12/25 09:25:06;;;;;;;3.97;1.15;;;11.10;99.90;;;;;;5016574;28;21640;-77
2023/12/25 09:27:33;;;;;;;2.70;0.65;;;11.10;99.90;;;;;;5013093;28;20033;-79
2023/12/25 09:29:59;;;;;;;3.38;1.15;;;11.10;99.90;;;;;;5017061;28;20038;-77
2023/12/25 09:32:27;;;;;;;3.85;0.70;;;11.10;99.90;;;;;;5015376;28;20040;-79
2023/12/25 09:34:53;;;;;;;5.05;1.00;;;11.20;99.90;;;;;;5016922;28;20033;-79
2023/12/25 09:37:19;;;;;;;2.22;0.80;;;11.20;99.90;;;;;;4998338;28;20496;-78
2023/12/25 09:39:46;;;;;;;7.28;1.02;;;11.20;99.90;;;;;;4983592;28;20038;-77
2023/12/25 09:42:12;;;;;;;4.18;1.10;;;11.20;99.90;;;;;;5012487;28;20033;-79
2023/12/25 09:44:39;;;;;;;2.70;0.70;;;11.20;99.90;;;;;;4995739;28;20683;-78
2023/12/25 09:47:09;;;;;;;4.72;0.80;;;11.30;99.90;;;;;;4981629;28;20037;-78
2023/12/25 09:49:38;;;;;;;3.58;0.70;;;11.30;99.90;;;;;;4994900;28;20401;-78
2023/12/25 09:52:04;;;;;;;4.32;0.73;;;11.40;99.90;;;;;;5012510;28;20439;-80
2023/12/25 09:54:31;;;;;;;3.80;1.00;;;11.40;99.90;;;;;;5015549;28;20037;-77
2023/12/25 09:56:58;;;;;;;2.70;0.90;;;11.40;99.90;;;;;;5013501;28;21186;-79
2023/12/25 09:59:28;;;;;;;3.97;0.70;;;11.40;99.90;;;;;;4996384;28;20415;-78
2023/12/25 10:01:57;;;;;;;4.85;1.23;;;11.40;99.90;;;;;;5014110;28;20042;-79
2023/12/25 10:04:27;;;;;;;4.70;1.23;;;11.40;99.90;;;;;;5034820;28;20033;-78
2023/12/25 10:06:53;;;;;;;2.83;0.80;;;11.40;99.90;;;;;;5001858;28;20046;-77
2023/12/25 10:09:20;;;;;;;4.20;1.20;;;11.40;99.90;;;;;;5021453;28;20040;-74
2023/12/25 10:11:46;;;;;;;5.97;1.20;;;11.50;99.90;;;;;;5016886;28;20448;-77
2023/12/25 10:14:12;;;;;;;4.10;1.40;;;11.50;99.90;;;;;;5003612;28;20041;-74
2023/12/25 10:16:38;;;;;;;2.42;1.00;;;11.50;99.90;;;;;;5018131;28;20033;-76
2023/12/25 10:19:05;;;;;;;6.88;1.70;;;11.60;99.90;;;;;;5015612;28;20033;-75
2023/12/25 10:21:44;;;;;;;5.85;1.10;;;11.60;99.90;;;;;;5014908;28;20064;-75
2023/12/25 10:24:15;;;;;;;3.67;0.95;;;11.60;99.90;;;;;;5017329;28;20040;-77
2023/12/25 10:26:44;;;;;;;3.03;1.10;;;11.60;99.90;;;;;;5013869;28;20919;-77
2023/12/25 10:29:11;;;;;;;5.18;1.00;;;11.60;99.90;;;;;;5002857;28;20459;-74
2023/12/25 10:31:40;;;;;;;2.45;1.00;;;11.70;99.90;;;;;;5019764;28;20039;-76
2023/12/25 10:34:06;;;;;;;2.80;0.70;;;11.70;99.90;;;;;;5017434;28;20469;-76
2023/12/25 10:36:33;;;;;;;4.60;0.90;;;11.60;99.90;;;;;;5018848;28;20036;-74
2023/12/25 10:39:00;;;;;;;3.70;0.68;;;11.60;99.90;;;;;;5017298;28;20045;-78
2023/12/25 10:41:33;;;;;;;3.63;1.23;;;11.60;99.90;;;;;;4997051;28;20034;-78
2023/12/25 10:44:02;;;;;;;2.28;0.60;;;11.60;99.90;;;;;;5018859;28;20028;-78
2023/12/25 10:46:37;;;;;;;2.60;0.60;;;11.60;99.90;;;;;;5000142;28;20033;-75
2023/12/25 10:49:05;;;;;;;2.58;0.60;;;11.60;99.90;;;;;;5002193;28;20348;-76
2023/12/25 10:51:32;;;;;;;2.78;0.70;;;11.60;99.90;;;;;;5016638;28;20029;-78
2023/12/25 10:54:08;;;;;;;1.98;0.60;;;11.60;99.90;;;;;;5017353;28;20044;-73
2023/12/25 10:56:36;;;;;;;4.80;0.75;;;11.60;99.90;;;;;;5016578;28;20029;-78
2023/12/25 10:59:10;;;;;;;5.35;0.60;;;11.60;99.90;;;;;;5016460;28;20041;-76
2023/12/25 11:01:39;;;;;;;2.90;0.60;;;11.60;99.90;;;;;;5014908;28;20037;-79
2023/12/25 11:04:06;;;;;;;3.05;0.77;;;11.60;99.90;;;;;;5017519;28;20046;-77
2023/12/25 11:06:33;;;;;;;3.45;1.00;;;11.60;99.90;;;;;;4999601;28;20054;-79
2023/12/25 11:08:59;;;;;;;2.67;0.82;;;11.60;99.90;;;;;;5000191;28;20033;-79
2023/12/25 11:11:26;;;;;;;4.10;0.60;;;11.60;99.90;;;;;;5017663;28;20032;-76
2023/12/25 11:13:53;;;;;;;5.25;0.93;;;11.60;99.90;;;;;;5017126;28;20048;-78
2023/12/25 11:16:21;;;;;;;3.40;0.68;;;11.60;99.90;;;;;;5015805;28;20040;-78
2023/12/25 11:18:47;;;;;;;3.13;0.80;;;11.60;99.90;;;;;;5002472;28;20041;-76
2023/12/25 11:21:18;;;;;;;2.22;0.70;;;11.60;99.90;;;;;;5013251;28;20740;-78
2023/12/25 11:23:46;;;;;;;3.53;0.73;;;11.70;99.90;;;;;;5013882;28;20072;-77
2023/12/25 11:26:16;;;;;;;2.95;0.60;;;11.80;99.90;;;;;;5014566;28;20037;-78
2023/12/25 11:28:43;;;;;;;2.60;0.50;;;11.80;99.90;;;;;;5013331;28;20384;-78
2023/12/25 11:31:13;;;;;;;1.95;0.55;;;11.80;99.90;;;;;;5000245;28;20030;-77
2023/12/25 11:33:46;;;;;;;2.60;0.50;;;11.80;99.90;;;;;;5017754;28;20028;-78
2023/12/25 11:36:14;;;;;;;3.85;0.77;;;11.90;99.90;;;;;;4983334;28;20363;-78
2023/12/25 11:38:42;;;;;;;6.10;0.77;;;11.80;99.90;;;;;;5000618;28;20500;-79
2023/12/25 11:41:16;;;;;;;5.05;0.95;;;11.80;99.90;;;;;;5013042;28;20520;-78
2023/12/25 11:43:43;;;;;;;1.55;0.50;;;11.80;99.90;;;;;;5011820;28;20041;-79
2023/12/25 11:46:14;;;;;;;3.50;0.60;;;11.80;99.90;;;;;;5013780;28;20044;-80
2023/12/25 11:48:50;;;;;;;2.55;0.50;;;11.80;99.90;;;;;;4998168;28;20041;-77
2023/12/25 11:51:25;;;;;;;3.70;0.50;;;11.80;99.90;;;;;;4996869;28;20048;-80
2023/12/25 11:53:55;;;;;;;2.53;0.43;;;11.70;99.90;;;;;;5018260;28;20030;-74
2023/12/25 11:56:22;;;;;;;3.88;0.55;;;11.70;99.90;;;;;;5010452;28;20044;-78
2023/12/25 11:58:48;;;;;;;2.78;0.50;;;11.70;99.90;;;;;;5015301;28;20473;-78
2023/12/25 12:01:17;;;;;;;2.50;0.60;;;11.70;99.90;;;;;;5012854;28;20037;-79
2023/12/25 12:03:48;;;;;;;2.72;0.57;;;11.80;99.90;;;;;;4998803;28;20037;-79
2023/12/25 12:06:17;;;;;;;4.50;0.70;;;11.80;99.90;;;;;;5014335;28;20113;-75
2023/12/25 12:08:44;;;;;;;4.18;0.80;;;11.70;99.90;;;;;;4998042;28;20059;-77
2023/12/25 12:11:13;;;;;;;3.88;0.50;;;11.70;99.90;;;;;;5011460;28;20041;-81
2023/12/25 12:13:40;;;;;;;4.30;0.88;;;11.70;99.90;;;;;;4998126;28;20040;-81
2023/12/25 12:16:07;;;;;;;2.58;0.40;;;11.60;99.90;;;;;;5012401;28;20033;-77
2023/12/25 12:18:34;;;;;;;3.20;0.80;;;11.70;99.90;;;;;;5012958;28;20493;-75
2023/12/25 12:21:00;;;;;;;3.25;0.50;;;11.70;99.90;;;;;;4997772;28;20030;-79
2023/12/25 12:23:28;;;;;;;5.05;0.68;;;11.80;99.90;;;;;;5014840;28;20481;-81
2023/12/25 12:25:54;;;;;;;3.60;0.90;;;11.80;99.90;;;;;;5016278;28;20037;-78
2023/12/25 12:28:21;;;;;;;3.58;0.55;;;11.90;99.90;;;;;;5014087;28;20037;-79
2023/12/25 12:30:48;;;;;;;3.28;0.50;;;11.90;99.90;;;;;;4996356;28;20424;-78
2023/12/25 12:33:16;;;;;;;3.25;0.50;;;12.00;99.90;;;;;;5014748;28;20037;-79
2023/12/25 12:35:42;;;;;;;3.08;0.50;;;12.00;99.90;;;;;;5014200;28;20030;-74
2023/12/25 12:38:12;;;;;;;3.20;0.50;;;11.90;99.90;;;;;;5013683;28;20038;-78
2023/12/25 12:40:39;;;;;;;1.92;0.55;;;11.90;99.90;;;;;;5015494;28;20033;-77
2023/12/25 12:43:05;;;;;;;3.90;0.60;;;11.90;99.90;;;;;;5017253;28;20045;-81